Time;durP1;ratioP1;P1;durP2;ratioP2;P2;SDS_P1;SDS_P2;PMS_P1;PMS_P2;Temp;Humidity;BMP_temperature;BMP_pressure;BME280_temperature;BME280_humidity;BME280_pressure;Samples;Min_cycle;Max_cycle;Signal;HPM_P1;HPM_P2
2021/12/21 00:00:27;;;;;;;20.38;6.75;;;;;;;0.29;68.73;102429.59;5064675;28;20436;-69
2021/12/21 00:02:54;;;;;;;27.30;7.10;;;;;;;0.16;69.66;102426.50;5058601;28;20036;-69
2021/12/21 00:05:27;;;;;;;21.52;8.45;;;;;;;0.22;70.05;102424.59;5068178;28;20040;-70
2021/12/21 00:07:56;;;;;;;23.13;7.28;;;;;;;0.18;69.58;102416.00;5065398;28;20044;-68
2021/12/21 00:10:26;;;;;;;23.70;7.22;;;;;;;0.22;70.09;102422.84;5100512;28;20516;-68
2021/12/21 00:15:39;;;;;;;19.35;6.60;;;;;;;0.15;69.42;102421.31;5054850;28;20045;-67
2021/12/21 00:18:46;;;;;;;21.23;7.40;;;;;;;0.11;70.33;102415.34;5053653;28;20045;-68
2021/12/21 00:23:43;;;;;;;20.60;6.85;;;;;;;0.08;71.46;102419.81;5053690;28;20049;-67
2021/12/21 00:26:12;;;;;;;23.40;7.53;;;;;;;0.07;71.54;102418.06;5054871;28;20512;-67
2021/12/21 00:28:59;;;;;;;17.50;6.68;;;;;;;0.04;71.50;102413.81;5037153;28;20287;-68
2021/12/21 00:31:29;;;;;;;19.30;6.85;;;;;;;0.08;71.18;102417.19;5051956;28;20099;-67
2021/12/21 00:33:56;;;;;;;19.25;6.72;;;;;;;0.08;71.54;102411.97;5053750;28;20048;-68
2021/12/21 00:36:28;;;;;;;20.15;7.60;;;;;;;0.07;71.43;102412.84;5087238;28;20071;-68
2021/12/21 00:38:56;;;;;;;;;;;;;;;0.07;71.06;102402.41;5055063;28;20124;-67
2021/12/21 00:41:24;;;;;;;18.40;5.90;;;;;;;0.03;71.77;102406.03;5053555;28;19924;-68
2021/12/21 00:43:51;;;;;;;23.38;6.82;;;;;;;0.03;71.38;102398.19;5054942;28;20044;-67
2021/12/21 00:46:18;;;;;;;19.95;6.65;;;;;;;0.07;71.25;102402.41;5060970;28;20543;-67
2021/12/21 00:48:51;;;;;;;22.55;6.60;;;;;;;0.02;71.59;102404.31;5055071;28;20041;-69
2021/12/21 00:51:21;;;;;;;20.23;6.57;;;;;;;0.05;71.33;102405.06;5036801;28;20379;-68
2021/12/21 00:53:48;;;;;;;25.40;6.70;;;;;;;0.07;70.93;102410.25;5053057;28;20568;-68
2021/12/21 00:56:15;;;;;;;17.83;6.63;;;;;;;0.03;71.64;102398.19;5053011;28;20405;-68
2021/12/21 00:58:42;;;;;;;19.52;6.63;;;;;;;0.02;71.33;102393.88;5052848;28;20041;-67
2021/12/21 01:01:09;;;;;;;22.65;7.00;;;;;;;0.01;71.98;102398.25;5052911;28;20041;-67
2021/12/21 01:03:41;;;;;;;18.08;6.90;;;;;;;-0.02;71.35;102395.72;5050473;28;20444;-67
2021/12/21 01:06:17;;;;;;;18.38;6.07;;;;;;;-0.08;72.35;102390.69;5054254;28;20051;-67
2021/12/21 01:09:10;;;;;;;19.83;6.43;;;;;;;-0.08;72.45;102388.91;5053820;28;20048;-67
2021/12/21 01:11:36;;;;;;;21.48;7.00;;;;;;;-0.06;71.27;102392.34;5053851;28;20628;-67
2021/12/21 01:14:31;;;;;;;16.42;6.45;;;;;;;-0.09;71.47;102389.84;5049875;28;20045;-67
2021/12/21 01:19:42;;;;;;;18.48;6.50;;;;;;;-0.19;72.63;102388.38;5052881;28;20482;-67
2021/12/21 01:28:16;;;;;;;15.32;6.18;;;;;;;-0.25;72.50;102392.03;5110753;27;20125;-68
2021/12/21 01:30:49;;;;;;;21.13;6.80;;;;;;;-0.20;72.22;102387.53;5095162;28;20078;-69
2021/12/21 01:36:08;;;;;;;19.13;6.78;;;;;;;-0.27;72.84;102382.53;5095050;28;20052;-68
2021/12/21 01:38:45;;;;;;;20.05;6.63;;;;;;;-0.26;72.60;102392.06;5068254;28;20036;-68
2021/12/21 01:41:27;;;;;;;15.77;6.90;;;;;;;-0.25;72.80;102389.41;5093687;28;20044;-68
2021/12/21 01:44:09;;;;;;;;;;;;;;;-0.22;73.22;102388.47;5110127;28;20503;-68
2021/12/21 01:49:41;;;;;;;20.73;6.13;;;;;;;-0.28;72.06;102391.25;5109732;28;20044;-68
2021/12/21 01:52:13;;;;;;;18.52;6.57;;;;;;;-0.29;72.62;102385.19;5091786;28;20040;-68
2021/12/21 01:54:41;;;;;;;16.73;6.55;;;;;;;-0.31;72.69;102380.91;5091982;28;20044;-68
2021/12/21 01:57:09;;;;;;;20.38;6.70;;;;;;;-0.34;72.94;102381.84;5074858;28;20043;-68
2021/12/21 01:59:37;;;;;;;22.83;6.32;;;;;;;-0.39;73.24;102387.19;5109567;28;20048;-68
2021/12/21 02:02:06;;;;;;;16.65;5.78;;;;;;;-0.36;73.51;102386.25;5109547;28;20043;-68
2021/12/21 02:04:32;;;;;;;21.08;6.72;;;;;;;-0.36;73.18;102381.03;5062233;28;20047;-68
2021/12/21 02:06:59;;;;;;;18.65;7.05;;;;;;;-0.37;73.21;102381.09;5109220;28;20043;-68
2021/12/21 02:09:36;;;;;;;21.08;6.65;;;;;;;-0.37;73.52;102378.47;5056640;28;20105;-68
2021/12/21 02:12:07;;;;;;;32.17;6.97;;;;;;;-0.43;73.23;102369.06;5076028;28;20518;-68
2021/12/21 02:14:34;;;;;;;14.80;6.40;;;;;;;-0.37;73.26;102375.88;5091377;28;20093;-69
2021/12/21 02:20:24;;;;;;;17.42;6.00;;;;;;;-0.43;73.58;102374.28;5109264;28;20126;-68
2021/12/21 02:23:03;;;;;;;18.30;6.47;;;;;;;-0.40;74.17;102374.19;5109293;28;20043;-69
2021/12/21 02:25:50;;;;;;;18.48;6.18;;;;;;;-0.36;74.84;102382.78;5089740;28;20123;-69
2021/12/21 02:30:55;;;;;;;20.45;6.68;;;;;;;-0.39;73.81;102363.72;5110358;27;20132;-67
2021/12/21 02:33:24;;;;;;;16.70;6.22;;;;;;;-0.36;73.82;102368.00;5075724;28;20110;-68
2021/12/21 02:35:52;;;;;;;15.35;6.53;;;;;;;-0.41;73.76;102367.28;5110159;28;20043;-67
2021/12/21 02:38:19;;;;;;;17.00;6.32;;;;;;;-0.42;74.21;102355.13;5107759;28;20046;-67
2021/12/21 02:40:47;;;;;;;18.55;6.28;;;;;;;-0.37;74.32;102360.22;5073536;28;20101;-67
2021/12/21 02:43:14;;;;;;;17.25;5.72;;;;;;;-0.47;73.83;102365.69;5075366;28;20051;-67
2021/12/21 02:45:41;;;;;;;12.70;5.65;;;;;;;-0.48;73.06;102363.97;5091901;28;20044;-67
2021/12/21 02:48:09;;;;;;;14.77;5.95;;;;;;;-0.48;72.93;102369.19;5109752;28;20040;-70
2021/12/21 02:50:38;;;;;;;16.85;6.22;;;;;;;-0.45;73.91;102363.91;5091434;28;20040;-68
2021/12/21 02:53:06;;;;;;;17.52;6.13;;;;;;;-0.47;74.41;102359.66;5092146;28;20126;-67
2021/12/21 02:55:33;;;;;;;18.38;6.03;;;;;;;-0.46;74.95;102362.19;5115607;28;20489;-67
2021/12/21 02:58:00;;;;;;;18.60;6.03;;;;;;;-0.45;74.67;102366.50;5113525;28;20046;-67
2021/12/21 03:00:28;;;;;;;15.02;6.20;;;;;;;-0.43;74.84;102358.66;5084410;28;20044;-67
2021/12/21 03:02:55;;;;;;;18.23;6.22;;;;;;;-0.45;74.63;102356.09;5071376;28;20036;-68
2021/12/21 03:05:22;;;;;;;13.57;5.68;;;;;;;-0.43;74.44;102356.88;5071346;28;20048;-67
2021/12/21 03:08:24;;;;;;;19.70;6.20;;;;;;;-0.41;75.02;102352.47;5069689;28;20469;-67
2021/12/21 03:10:38;;;;;;;17.83;6.55;;;;;;;-0.43;74.73;102356.03;5074312;28;20055;-67
2021/12/21 03:15:51;;;;;;;16.98;6.32;;;;;;;-0.46;74.81;102358.72;5057490;28;20036;-67
2021/12/21 03:18:18;;;;;;;15.57;5.78;;;;;;;-0.49;75.16;102351.84;5071157;28;20049;-67
2021/12/21 03:20:44;;;;;;;16.73;6.93;;;;;;;-0.45;74.84;102352.63;5054695;28;20133;-68
2021/12/21 03:23:11;;;;;;;19.13;6.88;;;;;;;-0.47;74.52;102351.81;5071131;28;20052;-68
2021/12/21 03:25:38;;;;;;;17.52;6.13;;;;;;;-0.49;75.19;102341.44;5070934;28;20056;-68
2021/12/21 03:28:04;;;;;;;14.57;5.50;;;;;;;-0.47;75.27;102347.44;5054570;28;20041;-68
2021/12/21 03:30:31;;;;;;;17.13;6.10;;;;;;;-0.42;74.36;102352.53;5084692;28;20044;-69
2021/12/21 03:32:58;;;;;;;16.48;5.53;;;;;;;-0.37;74.45;102347.19;5097245;28;20036;-68
2021/12/21 03:35:25;;;;;;;15.70;5.53;;;;;;;-0.40;73.46;102353.31;5107409;28;20126;-68
2021/12/21 03:37:51;;;;;;;15.35;5.78;;;;;;;-0.44;73.26;102355.19;5098438;28;20037;-68
2021/12/21 03:40:18;;;;;;;15.90;6.40;;;;;;;-0.40;72.83;102341.16;5100987;28;20032;-68
2021/12/21 03:42:45;;;;;;;17.75;6.70;;;;;;;-0.40;72.43;102346.38;5089272;28;20044;-68
2021/12/21 03:45:12;;;;;;;16.17;5.78;;;;;;;-0.42;73.13;102353.41;5040514;28;20048;-68
2021/12/21 03:47:38;;;;;;;17.05;6.47;;;;;;;-0.48;73.69;102343.13;5057237;28;20090;-68
2021/12/21 03:50:13;;;;;;;15.85;6.32;;;;;;;-0.46;73.49;102346.53;5074890;28;20060;-68
2021/12/21 03:52:39;;;;;;;17.42;6.32;;;;;;;-0.50;73.74;102351.91;5073891;28;20071;-68
2021/12/21 03:55:06;;;;;;;19.38;7.47;;;;;;;-0.53;74.42;102350.22;5074944;28;20050;-67
2021/12/21 03:57:33;;;;;;;19.50;6.45;;;;;;;-0.47;73.32;102350.06;5057274;28;20505;-68
2021/12/21 04:00:01;;;;;;;17.13;6.10;;;;;;;-0.46;72.70;102345.69;5056871;28;20040;-68
2021/12/21 04:02:42;;;;;;;23.75;7.63;;;;;;;-0.48;72.79;102334.44;5131031;27;20390;-67
2021/12/21 04:05:09;;;;;;;17.52;6.43;;;;;;;-0.53;73.09;102339.78;5112641;28;20403;-67
2021/12/21 04:07:36;;;;;;;21.10;6.82;;;;;;;-0.53;72.71;102336.34;5111926;28;20492;-67
2021/12/21 04:10:03;;;;;;;18.63;7.68;;;;;;;-0.57;73.17;102340.78;5110235;28;20058;-68
2021/12/21 04:12:31;;;;;;;25.08;7.13;;;;;;;-0.62;73.66;102337.44;5109002;28;20089;-67
2021/12/21 04:14:58;;;;;;;17.38;7.53;;;;;;;-0.71;74.45;102330.75;5092126;28;20067;-68
2021/12/21 04:17:25;;;;;;;20.00;8.20;;;;;;;-0.71;74.71;102333.34;5110196;28;20062;-67
2021/12/21 04:19:52;;;;;;;23.90;8.38;;;;;;;-0.67;73.75;102326.31;5109983;28;20044;-68
2021/12/21 04:22:20;;;;;;;19.65;7.70;;;;;;;-0.66;73.49;102335.81;5109621;28;20035;-67
2021/12/21 04:24:47;;;;;;;21.67;8.30;;;;;;;-0.77;74.25;102328.28;5109987;28;20126;-68
2021/12/21 04:27:15;;;;;;;23.05;7.95;;;;;;;-0.74;74.39;102330.81;5108813;28;20044;-68
2021/12/21 04:29:42;;;;;;;21.63;8.18;;;;;;;-0.73;74.51;102329.91;5075239;28;20068;-68
2021/12/21 04:32:09;;;;;;;25.58;8.20;;;;;;;-0.70;74.64;102327.22;5109762;28;20036;-68
2021/12/21 04:34:38;;;;;;;23.70;8.05;;;;;;;-0.70;74.47;102334.22;5090091;28;20083;-68
2021/12/21 04:37:05;;;;;;;23.65;8.60;;;;;;;-0.70;74.36;102324.63;5113017;28;20084;-68
2021/12/21 04:39:39;;;;;;;18.85;7.13;;;;;;;-0.68;74.62;102329.81;5112112;28;20059;-68
2021/12/21 04:42:06;;;;;;;18.55;7.25;;;;;;;-0.61;73.61;102318.31;5128907;27;20456;-68
2021/12/21 04:44:33;;;;;;;18.35;7.97;;;;;;;-0.61;73.39;102313.94;5129955;27;20058;-68
2021/12/21 04:47:00;;;;;;;24.30;7.43;;;;;;;-0.61;73.20;102318.31;5130144;27;20122;-68
2021/12/21 04:49:27;;;;;;;19.92;7.47;;;;;;;-0.64;73.01;102318.38;5111416;28;20039;-68
2021/12/21 04:51:54;;;;;;;21.33;7.97;;;;;;;-0.69;72.96;102317.66;5129937;27;20050;-68
2021/12/21 04:54:21;;;;;;;21.30;7.55;;;;;;;-0.72;73.49;102320.38;5128855;28;20116;-68
2021/12/21 04:56:47;;;;;;;22.33;8.93;;;;;;;-0.73;73.35;102321.25;5129903;27;20046;-68
2021/12/21 04:59:14;;;;;;;19.38;8.07;;;;;;;-0.77;73.70;102316.09;5128577;27;20407;-68
2021/12/21 05:01:42;;;;;;;18.42;7.95;;;;;;;-0.73;73.64;102329.06;5128983;28;20054;-68
2021/12/21 05:04:08;;;;;;;23.08;7.97;;;;;;;-0.75;74.29;102326.50;5129874;28;20044;-67
2021/12/21 05:06:35;;;;;;;17.38;7.30;;;;;;;-0.81;74.09;102321.47;5136693;27;20103;-68
2021/12/21 05:09:09;;;;;;;19.35;7.55;;;;;;;-0.82;73.86;102324.94;5113250;28;20094;-68
2021/12/21 05:11:36;;;;;;;25.00;8.20;;;;;;;-0.82;73.09;102320.63;5127807;28;20082;-68
2021/12/21 05:14:08;;;;;;;23.67;8.13;;;;;;;-0.79;73.38;102315.31;5097487;28;20079;-68
2021/12/21 05:16:36;;;;;;;18.02;6.57;;;;;;;-0.82;73.19;102318.00;5114872;28;20479;-68
2021/12/21 05:19:04;;;;;;;20.63;7.72;;;;;;;-0.86;73.72;102328.56;5097483;28;20047;-68
2021/12/21 05:21:31;;;;;;;17.02;7.32;;;;;;;-0.92;73.46;102333.94;5114675;28;20039;-68
2021/12/21 05:23:58;;;;;;;19.30;7.75;;;;;;;-0.92;73.96;102324.38;5115636;27;20039;-69
2021/12/21 05:26:25;;;;;;;17.08;6.85;;;;;;;-0.90;73.96;102326.94;5114289;28;20043;-68
2021/12/21 05:28:53;;;;;;;19.10;7.45;;;;;;;-0.90;74.21;102329.53;5049452;28;20504;-68
2021/12/21 05:31:20;;;;;;;25.20;8.20;;;;;;;-0.93;74.11;102327.00;5077346;28;20059;-68
2021/12/21 05:33:51;;;;;;;22.10;8.57;;;;;;;-0.92;74.58;102332.19;5093127;28;20051;-68
2021/12/21 05:36:20;;;;;;;23.20;7.75;;;;;;;-0.91;75.25;102331.28;5094913;28;20036;-68
2021/12/21 05:38:51;;;;;;;19.20;7.70;;;;;;;-0.93;75.15;102330.44;5110812;28;20104;-68
2021/12/21 05:41:26;;;;;;;22.63;8.23;;;;;;;-0.87;74.58;102329.47;5100982;28;20047;-68
2021/12/21 05:43:53;;;;;;;20.70;7.40;;;;;;;-0.89;74.95;102323.41;5093618;28;20078;-68
2021/12/21 05:46:20;;;;;;;24.80;8.07;;;;;;;-0.88;74.90;102333.78;5076334;28;20497;-68
2021/12/21 05:48:51;;;;;;;22.08;7.18;;;;;;;-0.91;74.67;102320.00;5093490;28;20059;-68
2021/12/21 05:51:20;;;;;;;22.20;7.20;;;;;;;-0.86;75.19;102333.75;5094916;28;20561;-68
2021/12/21 05:53:48;;;;;;;20.88;7.93;;;;;;;-0.84;74.63;102325.00;5094763;28;20056;-68
2021/12/21 05:56:15;;;;;;;19.83;7.63;;;;;;;-0.83;74.57;102325.88;5100929;28;20104;-68
2021/12/21 05:58:42;;;;;;;20.88;8.00;;;;;;;-0.84;74.51;102335.41;5114860;27;20156;-68
2021/12/21 06:01:09;;;;;;;19.88;7.70;;;;;;;-0.88;74.32;102325.97;5113138;28;20066;-70
2021/12/21 06:03:36;;;;;;;18.77;7.53;;;;;;;-0.85;74.65;102336.34;5114777;28;20488;-69
2021/12/21 06:06:03;;;;;;;19.60;6.82;;;;;;;-0.84;74.68;102350.19;5115052;27;20400;-69
2021/12/21 06:08:30;;;;;;;18.90;6.85;;;;;;;-0.84;74.44;102345.84;5112872;28;20100;-70
2021/12/21 06:10:57;;;;;;;22.95;7.53;;;;;;;-0.87;74.15;102342.50;5113616;28;20040;-71
2021/12/21 06:13:46;;;;;;;18.70;6.38;;;;;;;-0.84;73.66;102340.63;5113973;28;20044;-69
2021/12/21 06:27:20;;;;;;;16.92;6.82;;;;;;;-0.81;73.48;102340.56;5114078;28;20059;-69
2021/12/21 06:29:46;;;;;;;21.90;7.60;;;;;;;-0.79;73.44;102336.16;5114257;28;20488;-68
2021/12/21 06:32:13;;;;;;;21.77;7.28;;;;;;;-0.83;74.39;102336.28;5114141;28;20050;-68
2021/12/21 06:34:41;;;;;;;21.08;6.93;;;;;;;-0.85;74.70;102340.69;5112874;28;20071;-68
2021/12/21 06:37:08;;;;;;;21.35;7.40;;;;;;;-0.86;74.10;102338.97;5110874;28;20131;-68
2021/12/21 06:39:35;;;;;;;16.42;6.28;;;;;;;-0.81;74.37;102339.72;5112641;28;20039;-67
2021/12/21 06:42:02;;;;;;;16.27;6.47;;;;;;;-0.83;74.24;102341.50;5112540;28;20132;-68
2021/12/21 06:44:30;;;;;;;22.48;7.00;;;;;;;-0.84;74.20;102340.63;5113594;28;20054;-68
2021/12/21 06:51:08;;;;;;;16.92;6.43;;;;;;;-0.81;74.59;102344.91;5113613;28;20067;-69
2021/12/21 06:52:31;;;;;;;16.98;6.18;;;;;;;-0.79;74.72;102343.97;5077442;28;20585;-68
2021/12/21 06:54:59;;;;;;;15.43;6.18;;;;;;;-0.81;75.36;102347.53;5113064;28;20040;-68
2021/12/21 06:57:26;;;;;;;17.75;6.05;;;;;;;-0.81;75.34;102347.53;5095638;28;20089;-68
2021/12/21 06:59:53;;;;;;;15.07;6.07;;;;;;;-0.85;75.93;102349.34;5111925;28;20047;-68
2021/12/21 07:02:20;;;;;;;22.83;6.35;;;;;;;-0.87;75.73;102348.53;5092260;28;20044;-69
2021/12/21 07:04:47;;;;;;;15.52;5.93;;;;;;;-0.80;75.84;102346.63;5112068;28;20053;-68
2021/12/21 07:07:16;;;;;;;16.70;5.50;;;;;;;-0.77;75.53;102352.59;5110157;28;20063;-69
2021/12/21 07:09:47;;;;;;;21.35;6.53;;;;;;;-0.80;75.31;102351.81;5113262;28;20048;-68
2021/12/21 07:18:00;;;;;;;16.88;6.03;;;;;;;-0.69;74.77;102347.19;5113486;28;20118;-68
2021/12/21 07:18:10;;;;;;;15.40;5.45;;;;;;;-0.62;74.33;102350.47;5104690;28;20058;-68
2021/12/21 07:20:36;;;;;;;14.90;6.07;;;;;;;-0.46;73.61;102349.16;5120900;27;20040;-68
2021/12/21 07:23:03;;;;;;;19.27;6.35;;;;;;;-0.35;72.36;102358.44;5096617;28;20100;-68
2021/12/21 07:25:30;;;;;;;16.15;5.93;;;;;;;-0.49;72.87;102356.19;5101328;28;20062;-68
2021/12/21 07:27:57;;;;;;;36.00;7.70;;;;;;;-0.62;73.70;102351.34;5107714;28;20046;-68
2021/12/21 07:30:24;;;;;;;22.25;7.78;;;;;;;-0.77;74.51;102357.81;5092511;28;20052;-67
2021/12/21 07:32:51;;;;;;;19.83;6.25;;;;;;;-0.80;75.16;102352.69;5104115;28;20036;-69
2021/12/21 07:35:18;;;;;;;18.63;6.32;;;;;;;-0.83;75.00;102352.78;5107248;28;20044;-67
2021/12/21 07:37:45;;;;;;;21.95;7.35;;;;;;;-0.81;75.03;102353.59;5069001;28;20047;-70
2021/12/21 07:40:12;;;;;;;20.02;6.30;;;;;;;-0.80;74.86;102352.69;5089902;28;20044;-69
2021/12/21 07:42:39;;;;;;;22.88;7.50;;;;;;;-0.83;75.42;102352.78;5107183;28;20088;-68
2021/12/21 07:45:06;;;;;;;21.80;6.68;;;;;;;-0.82;75.38;102356.22;5109483;28;20035;-69
2021/12/21 07:47:33;;;;;;;23.23;6.28;;;;;;;-0.77;75.23;102355.19;5106752;28;20036;-70
2021/12/21 07:50:01;;;;;;;21.02;6.60;;;;;;;-0.77;74.73;102357.81;5108858;28;20043;-69
2021/12/21 07:52:28;;;;;;;19.55;6.63;;;;;;;-0.77;74.68;102354.34;5107527;28;20039;-69
2021/12/21 07:54:55;;;;;;;20.08;6.45;;;;;;;-0.73;75.09;102355.13;5103882;28;20031;-68
2021/12/21 07:57:22;;;;;;;20.88;7.00;;;;;;;-0.69;74.57;102356.75;5112929;27;20058;-68
2021/12/21 07:59:49;;;;;;;20.95;7.18;;;;;;;-0.66;73.61;102361.88;5070157;28;20044;-68
2021/12/21 08:02:16;;;;;;;23.88;7.30;;;;;;;-0.69;73.78;102352.41;5086427;28;20562;-69
2021/12/21 08:04:43;;;;;;;23.40;6.90;;;;;;;-0.63;73.58;102362.66;5100720;28;20548;-68
2021/12/21 08:07:16;;;;;;;21.55;7.32;;;;;;;-0.64;73.89;102363.56;5106157;28;20040;-69
2021/12/21 08:09:47;;;;;;;22.20;7.38;;;;;;;-0.68;73.85;102361.91;5103600;28;20050;-69
2021/12/21 08:12:16;;;;;;;21.35;7.78;;;;;;;-0.56;72.94;102365.09;5089995;28;20040;-68
2021/12/21 08:14:47;;;;;;;25.50;7.72;;;;;;;-0.59;73.82;102368.66;5077522;28;20056;-69
2021/12/21 08:17:14;;;;;;;23.80;7.45;;;;;;;-0.58;73.56;102372.97;5093250;28;20050;-69
2021/12/21 08:19:45;;;;;;;23.73;6.97;;;;;;;-0.56;74.27;102372.91;5096359;27;20035;-69
2021/12/21 08:22:12;;;;;;;18.85;6.65;;;;;;;-0.45;73.87;102374.34;5110394;28;20442;-69
2021/12/21 08:24:40;;;;;;;26.98;7.30;;;;;;;-0.47;74.36;102372.69;5071297;28;20503;-69
2021/12/21 08:27:07;;;;;;;24.40;6.85;;;;;;;-0.50;74.86;102368.38;5107344;28;20122;-69
2021/12/21 08:29:34;;;;;;;21.80;6.95;;;;;;;-0.44;75.47;102367.34;5110167;28;20043;-68
2021/12/21 08:32:01;;;;;;;24.25;7.43;;;;;;;-0.34;74.88;102367.97;5086449;28;20511;-69
2021/12/21 08:34:28;;;;;;;16.58;6.43;;;;;;;-0.33;74.66;102369.66;5107451;28;20506;-68
2021/12/21 08:36:55;;;;;;;19.25;5.72;;;;;;;-0.32;73.83;102377.44;5097254;28;20064;-69
2021/12/21 08:39:23;;;;;;;22.48;6.38;;;;;;;-0.31;74.37;102381.78;5087409;28;20047;-68
2021/12/21 08:41:56;;;;;;;19.13;6.15;;;;;;;-0.32;74.29;102371.38;5097539;28;20571;-69
2021/12/21 08:44:25;;;;;;;20.70;6.55;;;;;;;-0.26;74.12;102376.41;5080274;28;20051;-68
2021/12/21 08:46:53;;;;;;;20.27;6.60;;;;;;;-0.23;74.43;102378.94;5093755;28;20404;-68
2021/12/21 08:49:20;;;;;;;18.90;5.88;;;;;;;-0.15;74.18;102374.34;5084509;28;20051;-69
2021/12/21 08:51:47;;;;;;;19.08;6.30;;;;;;;-0.17;73.80;102378.75;5113039;27;20480;-69
2021/12/21 08:54:13;;;;;;;25.15;6.97;;;;;;;-0.25;74.43;102383.34;5092150;28;20131;-69
2021/12/21 08:56:40;;;;;;;19.02;6.90;;;;;;;-0.15;74.13;102378.72;5087335;27;20044;-69
2021/12/21 08:59:07;;;;;;;17.30;6.65;;;;;;;-0.12;74.23;102382.09;5110485;27;20111;-69
2021/12/21 09:01:34;;;;;;;19.70;6.88;;;;;;;-0.02;74.41;102383.53;5077437;28;20064;-69
2021/12/21 09:04:01;;;;;;;15.38;6.35;;;;;;;0.03;73.12;102378.16;5095136;28;20043;-69
2021/12/21 09:06:28;;;;;;;21.52;5.97;;;;;;;0.07;73.54;102376.31;5101514;28;20051;-69
2021/12/21 09:08:55;;;;;;;20.25;6.22;;;;;;;0.09;73.68;102375.38;5096478;28;20051;-69
2021/12/21 09:11:22;;;;;;;17.60;5.97;;;;;;;0.12;73.45;102367.44;5109795;27;20044;-69
2021/12/21 09:13:49;;;;;;;20.33;7.07;;;;;;;0.12;73.73;102359.63;5107422;27;20044;-69
2021/12/21 09:16:17;;;;;;;18.63;6.65;;;;;;;0.18;73.72;102363.78;5091671;28;20040;-69
2021/12/21 09:18:44;;;;;;;21.73;7.25;;;;;;;0.23;73.22;102356.69;5093555;28;20401;-68
2021/12/21 09:21:12;;;;;;;16.75;6.28;;;;;;;0.35;72.12;102376.34;5110736;28;20036;-69
2021/12/21 09:23:41;;;;;;;24.00;7.18;;;;;;;0.36;72.38;102375.44;5108748;28;20099;-68
2021/12/21 09:26:09;;;;;;;17.60;6.45;;;;;;;0.39;72.09;102372.72;5105589;27;20073;-69
2021/12/21 09:28:36;;;;;;;21.27;6.72;;;;;;;0.41;71.88;102373.53;5110711;28;20046;-69
2021/12/21 09:31:03;;;;;;;17.50;7.22;;;;;;;0.38;71.63;102365.78;5103896;28;20113;-68
2021/12/21 09:33:30;;;;;;;15.75;6.65;;;;;;;0.42;71.68;102371.75;5091873;28;20134;-68
2021/12/21 09:35:56;;;;;;;20.23;7.10;;;;;;;0.44;72.31;102362.13;5107853;27;20269;-69
2021/12/21 09:38:23;;;;;;;17.45;6.82;;;;;;;0.45;72.16;102361.22;5107981;27;20058;-68
2021/12/21 09:40:50;;;;;;;15.30;6.47;;;;;;;0.53;72.13;102367.06;5098271;28;20511;-68
2021/12/21 09:43:17;;;;;;;15.98;6.60;;;;;;;0.63;71.63;102370.22;5104958;27;20407;-68
2021/12/21 09:45:43;;;;;;;21.30;6.28;;;;;;;0.68;71.66;102365.72;5090638;28;20101;-69
2021/12/21 09:48:10;;;;;;;22.73;7.13;;;;;;;0.72;70.74;102368.16;5109161;28;20048;-69
2021/12/21 09:50:37;;;;;;;17.13;6.60;;;;;;;0.83;69.90;102369.56;5090981;28;20055;-69
2021/12/21 09:53:04;;;;;;;19.08;6.95;;;;;;;0.92;70.48;102369.25;5104329;27;20123;-68
2021/12/21 09:55:31;;;;;;;19.08;6.38;;;;;;;0.94;70.66;102360.47;5104364;27;20040;-69
2021/12/21 09:57:58;;;;;;;18.38;7.53;;;;;;;0.94;70.15;102367.44;5095255;28;20113;-68
2021/12/21 10:00:31;;;;;;;17.85;7.05;;;;;;;0.97;70.98;102363.91;5103258;27;20404;-69
2021/12/21 10:03:05;;;;;;;23.25;6.82;;;;;;;1.26;69.89;102362.88;5104657;28;20572;-68
2021/12/21 10:05:35;;;;;;;22.30;7.32;;;;;;;1.18;69.35;102362.28;5101349;28;20071;-69
2021/12/21 10:08:05;;;;;;;23.85;7.20;;;;;;;1.14;69.78;102372.84;5096492;28;20130;-68
2021/12/21 10:10:37;;;;;;;20.63;6.68;;;;;;;1.28;69.24;102372.38;5106738;28;20075;-69
2021/12/21 10:13:10;;;;;;;16.27;6.10;;;;;;;1.30;68.10;102361.88;5100840;28;20058;-69
2021/12/21 10:15:40;;;;;;;19.98;6.13;;;;;;;1.15;69.62;102360.66;5108416;27;20512;-68
2021/12/21 10:18:07;;;;;;;22.58;6.80;;;;;;;1.17;68.97;102358.81;5085656;28;20475;-68
2021/12/21 10:20:40;;;;;;;15.40;6.13;;;;;;;1.13;69.96;102365.91;5107725;27;20051;-69
2021/12/21 10:23:10;;;;;;;16.95;6.18;;;;;;;1.17;70.52;102360.59;5106451;28;20036;-70
2021/12/21 10:28:41;;;;;;;20.42;6.40;;;;;;;1.47;69.31;102356.88;5089446;27;20401;-69
2021/12/21 10:31:13;;;;;;;15.98;6.32;;;;;;;1.59;68.25;102360.81;5066810;28;20041;-69
2021/12/21 10:33:44;;;;;;;16.58;6.57;;;;;;;1.53;67.42;102358.44;5063440;28;20048;-68
2021/12/21 10:36:12;;;;;;;14.00;6.05;;;;;;;1.78;67.92;102357.50;5058388;28;20517;-67
2021/12/21 10:38:49;;;;;;;18.20;6.45;;;;;;;1.68;67.42;102334.31;5063742;28;20091;-68
2021/12/21 10:41:20;;;;;;;16.92;6.13;;;;;;;2.02;66.88;102345.25;5055737;28;20489;-69
2021/12/21 10:44:10;;;;;;;17.85;6.18;;;;;;;1.94;66.94;102344.69;5060401;28;20132;-69
2021/12/21 10:46:40;;;;;;;17.75;6.15;;;;;;;1.98;67.04;102344.50;5056317;28;20083;-69
2021/12/21 10:49:16;;;;;;;15.30;6.50;;;;;;;2.10;67.16;102338.78;5060380;28;20171;-67
2021/12/21 10:52:05;;;;;;;20.35;5.85;;;;;;;2.15;66.98;102340.38;5056135;28;20365;-68
2021/12/21 10:54:36;;;;;;;15.20;5.50;;;;;;;2.80;64.82;102339.50;5057660;28;20501;-68
2021/12/21 10:57:08;;;;;;;15.80;6.05;;;;;;;4.51;58.72;102331.72;5063728;28;20048;-67
2021/12/21 10:59:37;;;;;;;14.25;5.40;;;;;;;6.22;54.39;102329.75;5041985;28;20045;-68
2021/12/21 11:04:46;;;;;;;15.63;5.95;;;;;;;9.40;45.32;102320.25;5119457;27;20403;-69
2021/12/21 11:07:37;;;;;;;15.73;5.68;;;;;;;10.30;42.04;102314.66;5099502;28;20040;-67
2021/12/21 11:10:11;;;;;;;14.85;5.70;;;;;;;11.21;40.68;102305.13;5101583;28;20050;-68
2021/12/21 11:12:49;;;;;;;14.50;5.78;;;;;;;12.04;39.15;102306.53;5101163;28;20401;-70
2021/12/21 11:15:18;;;;;;;14.90;6.32;;;;;;;12.38;37.64;102293.06;5111940;27;20040;-68
2021/12/21 11:17:47;;;;;;;14.27;6.10;;;;;;;12.85;36.64;102306.03;5103980;28;20508;-68
2021/12/21 11:20:15;;;;;;;15.52;5.78;;;;;;;13.18;35.11;102298.75;5077459;28;20044;-69
2021/12/21 11:22:44;;;;;;;12.23;5.22;;;;;;;13.49;35.18;102296.94;5066336;28;20497;-69
2021/12/21 11:25:14;;;;;;;12.52;5.60;;;;;;;13.33;34.77;102294.78;5100482;28;20123;-69
2021/12/21 11:27:43;;;;;;;17.17;5.35;;;;;;;12.78;34.75;102283.56;5094644;28;20056;-67
2021/12/21 11:30:13;;;;;;;13.23;4.95;;;;;;;12.09;35.78;102282.19;5114674;28;20094;-67
2021/12/21 11:32:48;;;;;;;13.10;5.18;;;;;;;11.78;36.80;102279.34;5099168;28;20089;-67
2021/12/21 11:37:59;;;;;;;12.57;4.68;;;;;;;10.45;39.09;102274.72;5127319;27;20413;-66
2021/12/21 11:40:30;;;;;;;17.33;5.63;;;;;;;10.28;38.90;102271.50;5122917;27;20119;-67
2021/12/21 11:43:11;;;;;;;14.32;5.60;;;;;;;9.70;40.59;102281.06;5112718;28;20051;-68
2021/12/21 11:45:46;;;;;;;;;;;;;;;8.83;42.58;102279.16;5119347;28;20046;-68
2021/12/21 11:48:22;;;;;;;17.65;5.85;;;;;;;8.80;44.05;102270.56;5118905;28;19926;-68
2021/12/21 11:50:50;;;;;;;13.07;5.60;;;;;;;8.07;44.21;102271.88;5116523;28;20048;-68
2021/12/21 11:53:19;;;;;;;13.70;5.53;;;;;;;8.00;45.62;102265.28;5113645;27;20043;-67
2021/12/21 11:55:49;;;;;;;14.57;5.60;;;;;;;7.34;46.91;102257.16;5118484;27;20061;-67
2021/12/21 11:58:22;;;;;;;14.63;6.07;;;;;;;7.02;47.47;102261.78;5121345;27;20032;-67
2021/12/21 12:00:55;;;;;;;14.85;6.45;;;;;;;6.54;49.10;102251.44;5105411;27;20044;-67
2021/12/21 12:03:25;;;;;;;22.48;6.53;;;;;;;6.17;50.92;102258.88;5117999;27;20046;-67
2021/12/21 12:05:57;;;;;;;22.27;8.27;;;;;;;5.81;51.26;102260.00;5112752;27;20054;-68
2021/12/21 12:08:28;;;;;;;23.58;6.40;;;;;;;5.47;52.57;102255.75;5118308;27;20444;-67
2021/12/21 12:10:59;;;;;;;16.90;6.85;;;;;;;5.44;53.35;102248.00;5118643;27;20481;-67
2021/12/21 12:16:10;;;;;;;15.32;6.85;;;;;;;5.40;53.96;102244.69;5092350;27;20602;-68
2021/12/21 12:18:43;;;;;;;24.83;6.90;;;;;;;5.37;53.85;102243.09;5071073;28;20075;-66
2021/12/21 12:21:17;;;;;;;16.88;6.75;;;;;;;5.54;54.08;102252.69;5054396;28;20047;-66
2021/12/21 12:23:49;;;;;;;18.67;7.50;;;;;;;5.64;52.31;102257.44;5088493;28;20079;-66
2021/12/21 12:26:36;;;;;;;17.10;6.72;;;;;;;5.73;53.31;102255.16;5081918;28;20137;-66